Time;durP1;ratioP1;P1;durP2;ratioP2;P2;SDS_P1;SDS_P2;PMS_P1;PMS_P2;Temp;Humidity;BMP_temperature;BMP_pressure;BME280_temperature;BME280_humidity;BME280_pressure;Samples;Min_cycle;Max_cycle;Signal;HPM_P1;HPM_P2
2023/08/05 00:03:55;;;;;;;9.73;8.80;;;;;;;;;;10209405;28;20424;-72
2023/08/05 00:08:52;;;;;;;11.30;8.80;;;;;;;;;;10251905;28;20059;-72
2023/08/05 00:13:48;;;;;;;12.10;9.60;;;;;;;;;;10240914;28;20451;-72
2023/08/05 00:18:44;;;;;;;13.88;8.90;;;;;;;;;;10241160;28;20467;-72
2023/08/05 00:23:41;;;;;;;11.68;9.10;;;;;;;;;;10210339;28;20099;-72
2023/08/05 00:28:37;;;;;;;11.57;10.18;;;;;;;;;;10232413;28;20061;-72
2023/08/05 00:33:33;;;;;;;17.38;9.68;;;;;;;;;;10208297;28;20036;-72
2023/08/05 00:38:30;;;;;;;9.52;8.40;;;;;;;;;;10227621;28;20519;-72
2023/08/05 00:43:26;;;;;;;9.65;7.45;;;;;;;;;;10239236;28;20435;-73
2023/08/05 00:48:22;;;;;;;11.40;8.05;;;;;;;;;;10182397;28;20112;-72
2023/08/05 00:53:23;;;;;;;9.93;8.57;;;;;;;;;;10201261;28;20100;-72
2023/08/05 00:58:20;;;;;;;8.48;7.68;;;;;;;;;;10238882;28;20107;-72
2023/08/05 01:03:17;;;;;;;10.23;7.65;;;;;;;;;;10224024;28;20504;-73
2023/08/05 01:08:13;;;;;;;13.32;7.85;;;;;;;;;;10277696;28;20061;-72
2023/08/05 01:13:10;;;;;;;11.27;8.13;;;;;;;;;;10244697;28;20045;-72
2023/08/05 01:18:08;;;;;;;8.63;7.72;;;;;;;;;;10277645;28;20052;-72
2023/08/05 01:23:23;;;;;;;10.68;7.63;;;;;;;;;;10180341;28;20050;-72
2023/08/05 01:28:20;;;;;;;9.50;7.78;;;;;;;;;;10258307;28;20088;-72
2023/08/05 01:33:17;;;;;;;11.85;8.80;;;;;;;;;;10239447;28;20503;-73
2023/08/05 01:38:14;;;;;;;9.40;7.38;;;;;;;;;;10223541;28;20104;-72
2023/08/05 01:43:10;;;;;;;8.50;7.20;;;;;;;;;;10197120;28;20054;-72
2023/08/05 01:48:10;;;;;;;8.52;7.65;;;;;;;;;;10196239;28;20516;-72
2023/08/05 01:53:06;;;;;;;10.43;7.85;;;;;;;;;;10197272;28;20074;-72
2023/08/05 01:58:03;;;;;;;18.75;9.02;;;;;;;;;;10277554;28;20486;-72
2023/08/05 02:02:59;;;;;;;9.10;7.97;;;;;;;;;;10237968;28;20511;-72
2023/08/05 02:07:55;;;;;;;11.73;7.22;;;;;;;;;;10257962;28;20059;-72
2023/08/05 02:12:52;;;;;;;10.35;7.68;;;;;;;;;;10195985;28;20519;-72
2023/08/05 02:17:48;;;;;;;9.82;8.52;;;;;;;;;;10253077;28;20511;-73
2023/08/05 02:22:44;;;;;;;8.60;7.80;;;;;;;;;;10195209;28;20053;-73
2023/08/05 02:27:41;;;;;;;10.70;8.93;;;;;;;;;;10194954;28;20065;-73
2023/08/05 02:32:37;;;;;;;9.35;8.32;;;;;;;;;;10195584;28;20046;-72
2023/08/05 02:37:33;;;;;;;14.50;9.05;;;;;;;;;;10216386;28;20049;-73
2023/08/05 02:42:30;;;;;;;9.77;8.85;;;;;;;;;;10195319;28;20058;-72
2023/08/05 02:47:26;;;;;;;11.70;9.50;;;;;;;;;;10267086;28;20502;-72
2023/08/05 02:52:23;;;;;;;10.20;8.68;;;;;;;;;;10260249;28;20049;-73
2023/08/05 02:57:19;;;;;;;8.38;7.60;;;;;;;;;;10269936;28;20041;-72
2023/08/05 03:02:15;;;;;;;10.25;7.70;;;;;;;;;;10233159;28;20575;-73
2023/08/05 03:07:12;;;;;;;8.88;7.88;;;;;;;;;;10261328;28;20045;-72
2023/08/05 03:12:08;;;;;;;9.95;9.15;;;;;;;;;;10207549;28;20054;-73
2023/08/05 03:17:04;;;;;;;9.43;8.38;;;;;;;;;;10194204;28;20562;-73
2023/08/05 03:22:01;;;;;;;10.35;9.23;;;;;;;;;;10232590;28;20053;-73
2023/08/05 03:26:57;;;;;;;14.38;10.80;;;;;;;;;;10237195;28;20415;-73
2023/08/05 03:31:53;;;;;;;10.23;9.15;;;;;;;;;;10175867;28;20048;-72
2023/08/05 03:36:51;;;;;;;11.07;10.07;;;;;;;;;;10193469;28;20080;-72
2023/08/05 03:41:48;;;;;;;11.35;10.18;;;;;;;;;;10192290;28;20050;-72
2023/08/05 03:46:44;;;;;;;16.15;10.43;;;;;;;;;;10253803;28;20060;-73
2023/08/05 03:51:41;;;;;;;10.05;9.15;;;;;;;;;;10258087;28;20045;-72
2023/08/05 03:56:37;;;;;;;20.20;11.10;;;;;;;;;;10233293;28;20102;-72
2023/08/05 04:01:34;;;;;;;10.20;9.20;;;;;;;;;;10255843;28;20053;-73
2023/08/05 04:06:31;;;;;;;12.43;9.25;;;;;;;;;;10249013;28;20045;-72
2023/08/05 04:11:27;;;;;;;10.02;8.85;;;;;;;;;;10218147;28;20539;-72
2023/08/05 04:16:24;;;;;;;10.40;9.27;;;;;;;;;;10245701;28;20049;-72
2023/08/05 04:21:23;;;;;;;10.82;9.05;;;;;;;;;;10215241;28;20053;-72
2023/08/05 04:26:19;;;;;;;10.00;9.07;;;;;;;;;;10228639;28;20054;-72
2023/08/05 04:31:16;;;;;;;10.75;9.65;;;;;;;;;;10192182;28;20061;-72
2023/08/05 04:36:12;;;;;;;11.00;9.63;;;;;;;;;;10198898;28;20050;-72
2023/08/05 04:41:08;;;;;;;10.40;9.43;;;;;;;;;;10191974;28;20477;-72
2023/08/05 04:46:04;;;;;;;9.80;8.50;;;;;;;;;;10241424;28;20068;-72
2023/08/05 04:51:01;;;;;;;12.65;9.00;;;;;;;;;;10272329;28;20445;-72
2023/08/05 04:55:57;;;;;;;10.05;8.85;;;;;;;;;;10255306;28;20049;-73
2023/08/05 05:00:56;;;;;;;9.68;8.57;;;;;;;;;;10274388;28;20045;-74
2023/08/05 05:05:53;;;;;;;12.25;9.85;;;;;;;;;;10199296;28;20137;-73
2023/08/05 05:10:49;;;;;;;16.83;9.43;;;;;;;;;;10198151;28;20069;-73
2023/08/05 05:15:48;;;;;;;10.98;9.40;;;;;;;;;;10196935;28;20401;-72
2023/08/05 05:20:45;;;;;;;9.95;9.10;;;;;;;;;;10198535;28;20120;-73
2023/08/05 05:25:41;;;;;;;11.00;9.75;;;;;;;;;;10197632;28;20053;-73
2023/08/05 05:30:38;;;;;;;10.13;9.23;;;;;;;;;;10218446;28;20049;-72
2023/08/05 05:35:34;;;;;;;10.77;9.05;;;;;;;;;;10238355;28;20450;-73
2023/08/05 05:40:30;;;;;;;10.82;9.60;;;;;;;;;;10206255;28;20053;-72
2023/08/05 05:45:28;;;;;;;10.93;9.80;;;;;;;;;;10225978;28;20061;-73
2023/08/05 05:50:24;;;;;;;10.93;9.77;;;;;;;;;;10237246;28;20419;-73
2023/08/05 05:55:20;;;;;;;12.00;10.18;;;;;;;;;;10247640;28;20044;-73
2023/08/05 06:00:17;;;;;;;11.05;9.82;;;;;;;;;;10277264;28;20548;-73
2023/08/05 06:05:13;;;;;;;17.50;9.48;;;;;;;;;;10247544;28;20060;-73
2023/08/05 06:10:09;;;;;;;14.25;9.80;;;;;;;;;;10258868;28;20112;-73
2023/08/05 06:15:08;;;;;;;14.55;9.93;;;;;;;;;;10228391;28;20081;-73
2023/08/05 06:20:05;;;;;;;13.25;10.40;;;;;;;;;;10247557;28;20046;-73
2023/08/05 06:25:02;;;;;;;12.63;9.20;;;;;;;;;;10228514;28;20471;-73
2023/08/05 06:29:58;;;;;;;9.88;8.88;;;;;;;;;;10212220;28;20045;-73
2023/08/05 06:34:54;;;;;;;13.43;9.18;;;;;;;;;;10207826;28;20049;-73
2023/08/05 06:39:51;;;;;;;12.95;9.60;;;;;;;;;;10206173;28;20045;-74
2023/08/05 06:44:49;;;;;;;13.88;8.93;;;;;;;;;;10212356;28;20077;-73
2023/08/05 06:49:45;;;;;;;9.90;8.98;;;;;;;;;;10235100;28;20045;-73
2023/08/05 06:54:41;;;;;;;9.40;8.30;;;;;;;;;;10237514;28;20065;-72
2023/08/05 06:59:38;;;;;;;11.07;8.23;;;;;;;;;;10274608;28;20045;-72
2023/08/05 07:04:34;;;;;;;13.75;8.57;;;;;;;;;;10229586;28;20049;-73
2023/08/05 07:09:31;;;;;;;8.93;7.97;;;;;;;;;;10262900;28;20397;-72
2023/08/05 07:14:27;;;;;;;9.10;8.00;;;;;;;;;;10199290;28;20507;-72
2023/08/05 07:19:24;;;;;;;9.15;8.20;;;;;;;;;;10253310;28;20046;-72
2023/08/05 07:24:20;;;;;;;11.15;8.10;;;;;;;;;;10193101;28;20081;-72
2023/08/05 07:29:16;;;;;;;9.50;7.25;;;;;;;;;;10193119;28;20104;-72
2023/08/05 07:34:14;;;;;;;9.25;7.65;;;;;;;;;;10211821;28;20131;-72
2023/08/05 07:39:10;;;;;;;9.27;6.78;;;;;;;;;;10202222;28;20053;-72
2023/08/05 07:44:08;;;;;;;7.35;6.72;;;;;;;;;;10201233;28;20046;-72
2023/08/05 07:49:04;;;;;;;7.30;6.07;;;;;;;;;;10192703;28;20054;-72
2023/08/05 07:54:00;;;;;;;6.38;5.78;;;;;;;;;;10191186;28;20106;-72
2023/08/05 07:58:57;;;;;;;7.88;6.30;;;;;;;;;;10272984;28;20060;-72
2023/08/05 08:03:53;;;;;;;7.18;5.85;;;;;;;;;;10210052;28;20049;-72
2023/08/05 08:08:51;;;;;;;7.80;6.20;;;;;;;;;;10240791;28;20061;-72
2023/08/05 08:13:47;;;;;;;7.18;5.78;;;;;;;;;;10192394;28;20054;-72
2023/08/05 08:18:44;;;;;;;6.30;5.70;;;;;;;;;;10217732;28;20045;-73
2023/08/05 08:23:40;;;;;;;6.95;6.05;;;;;;;;;;10237744;28;20080;-73
2023/08/05 08:28:36;;;;;;;9.18;6.75;;;;;;;;;;10201832;28;20050;-72
2023/08/05 08:33:33;;;;;;;7.60;6.90;;;;;;;;;;10200182;28;20554;-73
2023/08/05 08:38:36;;;;;;;9.23;6.60;;;;;;;;;;10279887;28;20053;-73
2023/08/05 08:43:33;;;;;;;6.70;6.10;;;;;;;;;;10249203;28;20098;-73
2023/08/05 08:48:30;;;;;;;6.78;5.65;;;;;;;;;;10279762;28;20053;-73
2023/08/05 08:53:27;;;;;;;6.93;6.22;;;;;;;;;;10265059;28;20056;-73
2023/08/05 08:58:23;;;;;;;8.43;6.57;;;;;;;;;;10278909;28;20052;-74
2023/08/05 09:03:22;;;;;;;10.10;6.95;;;;;;;;;;10253576;28;20062;-73
2023/08/05 09:08:20;;;;;;;8.73;6.15;;;;;;;;;;10198356;28;20108;-73
2023/08/05 09:13:17;;;;;;;7.45;6.38;;;;;;;;;;10198446;28;20049;-73
2023/08/05 09:18:13;;;;;;;7.35;6.00;;;;;;;;;;10197901;28;20100;-73
2023/08/05 09:23:10;;;;;;;6.38;5.78;;;;;;;;;;10199708;28;20295;-74
2023/08/05 09:28:07;;;;;;;6.80;5.35;;;;;;;;;;10274205;28;20081;-73
2023/08/05 09:33:03;;;;;;;6.18;5.65;;;;;;;;;;10238193;28;20077;-73
2023/08/05 09:38:01;;;;;;;6.90;6.40;;;;;;;;;;10236843;28;20061;-73
2023/08/05 09:42:59;;;;;;;7.93;5.82;;;;;;;;;;10237727;28;20099;-74
2023/08/05 09:48:09;;;;;;;6.25;5.68;;;;;;;;;;10216518;28;20522;-74
2023/08/05 09:53:07;;;;;;;5.97;5.47;;;;;;;;;;10196914;28;20050;-74
2023/08/05 09:58:07;;;;;;;6.60;6.05;;;;;;;;;;10196593;28;20353;-74
2023/08/05 10:03:06;;;;;;;6.38;5.68;;;;;;;;;;10179790;28;20234;-74
2023/08/05 10:08:06;;;;;;;6.53;5.93;;;;;;;;;;10219365;28;20479;-73
2023/08/05 10:13:08;;;;;;;6.10;5.50;;;;;;;;;;10195941;28;20065;-73
2023/08/05 10:18:08;;;;;;;6.80;5.97;;;;;;;;;;10195602;28;20121;-73
2023/08/05 10:23:06;;;;;;;6.85;6.22;;;;;;;;;;10195639;28;20133;-73
2023/08/05 10:28:03;;;;;;;6.45;5.88;;;;;;;;;;10258563;28;20049;-73
2023/08/05 10:33:04;;;;;;;6.30;5.70;;;;;;;;;;10234334;28;20104;-73
2023/08/05 10:38:05;;;;;;;6.53;5.82;;;;;;;;;;10195195;28;20077;-74
2023/08/05 10:43:01;;;;;;;9.52;7.22;;;;;;;;;;10224583;28;20057;-73
2023/08/05 10:47:57;;;;;;;6.00;5.50;;;;;;;;;;10275383;28;20045;-72
2023/08/05 10:52:55;;;;;;;7.57;6.00;;;;;;;;;;10210995;28;20046;-73
2023/08/05 10:57:54;;;;;;;6.80;6.10;;;;;;;;;;10254032;28;20112;-73
2023/08/05 11:03:10;;;;;;;6.20;5.70;;;;;;;;;;10194327;28;20058;-74
2023/08/05 11:08:07;;;;;;;7.18;5.50;;;;;;;;;;10193824;28;20136;-73
2023/08/05 11:13:03;;;;;;;7.63;6.40;;;;;;;;;;10194569;28;20069;-72
2023/08/05 11:18:00;;;;;;;6.18;5.53;;;;;;;;;;10181967;28;20093;-72
2023/08/05 11:22:56;;;;;;;5.50;5.00;;;;;;;;;;10193386;28;20419;-73
2023/08/05 11:27:53;;;;;;;6.15;5.57;;;;;;;;;;10175744;28;20050;-73
2023/08/05 11:32:55;;;;;;;5.50;5.00;;;;;;;;;;10193242;28;20108;-72
2023/08/05 11:37:52;;;;;;;6.93;6.03;;;;;;;;;;10272005;28;20057;-72
2023/08/05 11:42:48;;;;;;;5.80;5.28;;;;;;;;;;10245309;28;20054;-72
2023/08/05 11:47:45;;;;;;;7.03;4.90;;;;;;;;;;10269355;28;20045;-72
2023/08/05 11:52:41;;;;;;;7.00;5.00;;;;;;;;;;10243960;28;20057;-72
2023/08/05 11:57:37;;;;;;;5.63;5.03;;;;;;;;;;10269754;28;20053;-72
2023/08/05 12:02:34;;;;;;;5.38;4.88;;;;;;;;;;10204234;28;20466;-72
2023/08/05 12:07:31;;;;;;;5.50;5.10;;;;;;;;;;10231394;28;20058;-72
2023/08/05 12:12:28;;;;;;;6.10;5.50;;;;;;;;;;10199102;28;20053;-72
2023/08/05 12:17:24;;;;;;;5.63;5.13;;;;;;;;;;10234316;28;20134;-72
2023/08/05 12:22:20;;;;;;;5.38;4.82;;;;;;;;;;10200922;28;20054;-73
2023/08/05 12:27:17;;;;;;;5.35;4.55;;;;;;;;;;10249309;28;20061;-73
2023/08/05 12:32:13;;;;;;;6.28;5.70;;;;;;;;;;10240705;28;20064;-74
2023/08/05 12:37:09;;;;;;;5.03;4.60;;;;;;;;;;10242132;28;20053;-74
2023/08/05 12:42:07;;;;;;;4.90;4.50;;;;;;;;;;10237686;28;20103;-74
2023/08/05 12:47:03;;;;;;;5.55;4.97;;;;;;;;;;10247535;28;20422;-74
2023/08/05 12:52:00;;;;;;;5.32;4.78;;;;;;;;;;10240477;28;20093;-74
2023/08/05 12:56:59;;;;;;;7.15;5.35;;;;;;;;;;10254605;28;20116;-74
2023/08/05 13:01:55;;;;;;;5.80;5.03;;;;;;;;;;10221693;28;20146;-74
2023/08/05 13:06:52;;;;;;;7.90;5.07;;;;;;;;;;10261140;28;20064;-73
2023/08/05 13:11:48;;;;;;;5.18;4.68;;;;;;;;;;10211519;28;20076;-74
2023/08/05 13:16:45;;;;;;;5.47;4.97;;;;;;;;;;10259045;28;20056;-74
2023/08/05 13:21:41;;;;;;;6.95;5.43;;;;;;;;;;10197458;28;20078;-74
2023/08/05 13:26:38;;;;;;;5.63;4.65;;;;;;;;;;10249363;28;20057;-74
2023/08/05 13:31:34;;;;;;;5.38;4.88;;;;;;;;;;10198251;28;20569;-74
2023/08/05 13:36:30;;;;;;;6.93;5.03;;;;;;;;;;10197498;28;20053;-73
2023/08/05 13:41:27;;;;;;;5.95;4.97;;;;;;;;;;10197983;28;20057;-73
2023/08/05 13:46:23;;;;;;;10.18;4.82;;;;;;;;;;10252006;28;20053;-73
2023/08/05 13:51:19;;;;;;;6.10;5.50;;;;;;;;;;10248497;28;20060;-73
2023/08/05 13:56:16;;;;;;;5.53;5.03;;;;;;;;;;10249546;28;20461;-73
2023/08/05 14:01:14;;;;;;;5.25;4.75;;;;;;;;;;10230388;28;20088;-73
2023/08/05 14:06:12;;;;;;;5.45;4.97;;;;;;;;;;10247855;28;20045;-74
2023/08/05 14:11:08;;;;;;;5.82;5.20;;;;;;;;;;10252196;28;20060;-73
2023/08/05 14:16:05;;;;;;;6.05;5.50;;;;;;;;;;10261486;28;20089;-73
2023/08/05 14:21:02;;;;;;;6.32;5.35;;;;;;;;;;10419697;23;20049;-73
2023/08/05 14:25:58;;;;;;;5.60;5.10;;;;;;;;;;10223426;28;20050;-72
2023/08/05 14:30:54;;;;;;;5.82;5.32;;;;;;;;;;10203752;28;20082;-71
2023/08/05 14:35:51;;;;;;;6.38;5.40;;;;;;;;;;10200083;28;20057;-71
2023/08/05 14:40:47;;;;;;;6.70;5.30;;;;;;;;;;10198556;28;20116;-71
2023/08/05 14:45:43;;;;;;;5.68;5.18;;;;;;;;;;10203670;28;20100;-71
2023/08/05 14:50:40;;;;;;;5.78;5.28;;;;;;;;;;10194843;28;20050;-71
2023/08/05 14:55:36;;;;;;;5.80;5.20;;;;;;;;;;10215451;28;20049;-72
2023/08/05 15:00:33;;;;;;;5.30;4.80;;;;;;;;;;10224192;28;20132;-72
2023/08/05 15:05:29;;;;;;;5.57;5.03;;;;;;;;;;10214479;28;20045;-72
2023/08/05 15:10:26;;;;;;;6.78;6.00;;;;;;;;;;10315467;22;20057;-71
2023/08/05 15:15:22;;;;;;;7.97;6.25;;;;;;;;;;10193262;28;20053;-71
2023/08/05 15:20:18;;;;;;;6.30;5.70;;;;;;;;;;10170735;28;20058;-72
2023/08/05 15:25:17;;;;;;;5.93;5.43;;;;;;;;;;10189853;28;20136;-72
2023/08/05 15:30:15;;;;;;;6.47;5.88;;;;;;;;;;10168846;28;20062;-72
2023/08/05 15:35:12;;;;;;;6.60;5.78;;;;;;;;;;10172616;28;20492;-72
2023/08/05 15:40:08;;;;;;;6.35;5.75;;;;;;;;;;10153348;28;20121;-72
2023/08/05 15:45:05;;;;;;;5.68;5.18;;;;;;;;;;10161732;28;20504;-73
2023/08/05 15:56:00;;;;;;;8.10;5.82;;;;;;;;;;10204798;28;20041;-72
2023/08/05 16:01:04;;;;;;;7.18;5.47;;;;;;;;;;10193350;28;20491;-72
2023/08/05 16:06:00;;;;;;;6.82;5.90;;;;;;;;;;10216214;28;20204;-71
2023/08/05 16:10:57;;;;;;;7.20;6.10;;;;;;;;;;10215573;28;20049;-73
2023/08/05 16:16:05;;;;;;;8.85;6.32;;;;;;;;;;10224112;28;20072;-73
2023/08/05 16:21:16;;;;;;;6.25;5.75;;;;;;;;;;10221405;28;20145;-73
2023/08/05 16:26:13;;;;;;;6.75;6.03;;;;;;;;;;10217942;28;20049;-73
2023/08/05 16:31:09;;;;;;;8.43;6.72;;;;;;;;;;10219160;28;20054;-74
2023/08/05 16:36:07;;;;;;;8.82;5.97;;;;;;;;;;10216689;28;20045;-74
2023/08/05 16:41:04;;;;;;;6.20;5.70;;;;;;;;;;10210988;28;20065;-73
2023/08/05 16:46:00;;;;;;;9.13;6.55;;;;;;;;;;10192299;28;20046;-73
2023/08/05 16:50:57;;;;;;;6.32;5.72;;;;;;;;;;10217358;23;20484;-73
2023/08/05 16:55:53;;;;;;;6.25;5.65;;;;;;;;;;10211294;28;20070;-74
2023/08/05 17:00:54;;;;;;;8.48;5.90;;;;;;;;;;10199984;28;20050;-72
2023/08/05 17:05:52;;;;;;;6.35;5.68;;;;;;;;;;10221894;28;20080;-71
2023/08/05 17:10:48;;;;;;;8.50;6.45;;;;;;;;;;10199810;28;20053;-71
2023/08/05 17:15:45;;;;;;;6.85;5.75;;;;;;;;;;10220136;28;20103;-71
2023/08/05 17:20:41;;;;;;;7.00;6.30;;;;;;;;;;10238746;28;20081;-72
2023/08/05 17:25:39;;;;;;;12.05;5.93;;;;;;;;;;10229012;28;20121;-71
2023/08/05 17:30:35;;;;;;;6.18;5.40;;;;;;;;;;10234157;28;20046;-72
2023/08/05 17:35:33;;;;;;;6.47;5.40;;;;;;;;;;10217860;28;20050;-72
2023/08/05 17:40:29;;;;;;;8.32;5.63;;;;;;;;;;10234263;28;20058;-71
2023/08/05 17:45:27;;;;;;;6.88;5.20;;;;;;;;;;10216718;28;20527;-72
2023/08/05 17:50:25;;;;;;;6.82;5.60;;;;;;;;;;10216083;28;20072;-72
2023/08/05 17:55:29;;;;;;;8.10;5.80;;;;;;;;;;10216341;28;20100;-71
2023/08/05 18:00:25;;;;;;;6.88;6.00;;;;;;;;;;10197405;28;20050;-71
2023/08/05 18:05:22;;;;;;;6.30;5.68;;;;;;;;;;10212000;28;20154;-71
2023/08/05 18:10:18;;;;;;;8.05;5.95;;;;;;;;;;10196282;28;20057;-72
2023/08/05 18:15:14;;;;;;;7.82;5.68;;;;;;;;;;10204198;28;20108;-71
2023/08/05 18:20:11;;;;;;;6.30;5.60;;;;;;;;;;10195742;28;20099;-72
2023/08/05 18:25:10;;;;;;;9.55;6.05;;;;;;;;;;10213638;28;20412;-72
2023/08/05 18:30:06;;;;;;;6.88;5.63;;;;;;;;;;10236126;28;20083;-71
2023/08/05 18:35:03;;;;;;;6.30;5.70;;;;;;;;;;10223544;28;20051;-71
2023/08/05 18:40:00;;;;;;;8.32;5.93;;;;;;;;;;10234579;28;20054;-71
2023/08/05 18:44:56;;;;;;;11.82;6.68;;;;;;;;;;10210317;28;20061;-71
2023/08/05 18:49:52;;;;;;;7.40;6.10;;;;;;;;;;10232686;28;20503;-72
2023/08/05 18:54:49;;;;;;;6.93;6.00;;;;;;;;;;10191261;28;20076;-71
2023/08/05 18:59:46;;;;;;;8.57;6.13;;;;;;;;;;10230687;28;20045;-71
2023/08/05 19:04:42;;;;;;;6.65;5.97;;;;;;;;;;10207995;28;20123;-71
2023/08/05 19:09:39;;;;;;;10.05;6.05;;;;;;;;;;10232862;28;20057;-71
2023/08/05 19:14:35;;;;;;;6.70;5.90;;;;;;;;;;10232395;28;20053;-71
2023/08/05 19:19:37;;;;;;;6.82;5.97;;;;;;;;;;10232640;28;20049;-71
2023/08/05 19:24:33;;;;;;;7.05;6.15;;;;;;;;;;10231985;28;20045;-71
2023/08/05 19:29:30;;;;;;;8.85;6.82;;;;;;;;;;10175652;28;20057;-70
2023/08/05 19:34:26;;;;;;;7.13;6.43;;;;;;;;;;10194976;28;20088;-71
2023/08/05 19:39:23;;;;;;;7.05;6.32;;;;;;;;;;10192633;28;20057;-71
2023/08/05 19:44:19;;;;;;;10.73;6.15;;;;;;;;;;10192968;28;20045;-71
2023/08/05 19:49:15;;;;;;;7.65;6.38;;;;;;;;;;10175143;28;20145;-71
2023/08/05 19:54:12;;;;;;;7.20;6.30;;;;;;;;;;10201945;28;20087;-71
2023/08/05 19:59:08;;;;;;;8.40;6.03;;;;;;;;;;10208738;28;20119;-71
2023/08/05 20:04:05;;;;;;;7.38;6.57;;;;;;;;;;10201228;28;20053;-71
2023/08/05 20:09:01;;;;;;;7.05;6.35;;;;;;;;;;10215543;28;20045;-71
2023/08/05 20:13:58;;;;;;;7.72;6.25;;;;;;;;;;10199928;28;20050;-71
2023/08/05 20:18:54;;;;;;;6.32;5.72;;;;;;;;;;10230992;28;20045;-71
2023/08/05 20:23:52;;;;;;;7.72;6.03;;;;;;;;;;10231227;28;20519;-71
2023/08/05 20:28:49;;;;;;;6.20;5.60;;;;;;;;;;10192398;28;20432;-72
2023/08/05 20:33:45;;;;;;;7.07;6.38;;;;;;;;;;10204708;28;20046;-72
2023/08/05 20:38:42;;;;;;;7.15;5.55;;;;;;;;;;10244333;23;20388;-71
2023/08/05 20:43:38;;;;;;;6.80;5.93;;;;;;;;;;10183780;28;20045;-71
2023/08/05 20:48:34;;;;;;;6.07;5.47;;;;;;;;;;10239205;28;20925;-71
2023/08/05 20:53:31;;;;;;;7.03;6.07;;;;;;;;;;10168237;28;20074;-71
2023/08/05 20:58:27;;;;;;;6.93;5.65;;;;;;;;;;10204166;28;20131;-71
2023/08/05 21:03:24;;;;;;;6.63;6.03;;;;;;;;;;10164676;28;20148;-72
2023/08/05 21:08:23;;;;;;;6.25;5.60;;;;;;;;;;10173481;28;20053;-72
2023/08/05 21:13:19;;;;;;;7.20;6.00;;;;;;;;;;10163360;28;20054;-71
2023/08/05 21:18:18;;;;;;;7.25;6.38;;;;;;;;;;10202884;28;20448;-71
2023/08/05 21:23:14;;;;;;;11.00;7.88;;;;;;;;;;10198419;28;20058;-71
2023/08/05 21:33:21;;;;;;;8.02;5.80;;;;;;;;;;10187858;28;20046;-72
2023/08/05 21:38:17;;;;;;;7.68;5.68;;;;;;;;;;10219624;28;20045;-71
2023/08/05 21:43:14;;;;;;;6.78;5.65;;;;;;;;;;10193464;28;20378;-72
2023/08/05 21:48:10;;;;;;;9.25;6.15;;;;;;;;;;10236576;28;20412;-71
2023/08/05 21:53:07;;;;;;;7.80;6.40;;;;;;;;;;10158428;28;20416;-72
2023/08/05 21:58:04;;;;;;;6.38;5.78;;;;;;;;;;10223445;28;20061;-71
2023/08/05 22:03:04;;;;;;;6.60;5.93;;;;;;;;;;10196852;28;20061;-72
2023/08/05 22:08:00;;;;;;;6.65;6.03;;;;;;;;;;10156625;28;20054;-72
2023/08/05 22:12:56;;;;;;;6.35;5.75;;;;;;;;;;10156787;28;20532;-71
2023/08/05 22:17:53;;;;;;;8.35;5.43;;;;;;;;;;10202113;28;20050;-71
2023/08/05 22:22:49;;;;;;;6.35;5.68;;;;;;;;;;10156171;28;20628;-71
2023/08/05 22:27:45;;;;;;;6.25;5.65;;;;;;;;;;10200833;28;20054;-72
2023/08/05 22:32:42;;;;;;;5.97;5.40;;;;;;;;;;10156006;28;20062;-71
2023/08/05 22:37:38;;;;;;;6.35;5.75;;;;;;;;;;10201895;28;20085;-71
2023/08/05 22:42:35;;;;;;;5.97;5.45;;;;;;;;;;10195522;28;20587;-71
2023/08/05 22:47:31;;;;;;;5.97;5.38;;;;;;;;;;10174540;28;20054;-71
2023/08/05 22:52:27;;;;;;;5.82;5.32;;;;;;;;;;10155097;28;20466;-72
2023/08/05 22:57:24;;;;;;;6.45;5.30;;;;;;;;;;10166743;28;20050;-72
2023/08/05 23:02:23;;;;;;;5.90;5.30;;;;;;;;;;10154947;28;20104;-71
2023/08/05 23:07:19;;;;;;;5.65;5.10;;;;;;;;;;10172292;28;20122;-72
2023/08/05 23:12:15;;;;;;;6.50;5.10;;;;;;;;;;10186288;28;20046;-73
2023/08/05 23:17:12;;;;;;;6.32;5.75;;;;;;;;;;10220519;28;20053;-72
2023/08/05 23:22:08;;;;;;;6.88;5.57;;;;;;;;;;10190145;28;20085;-72
2023/08/05 23:27:05;;;;;;;6.25;5.65;;;;;;;;;;10219423;28;20097;-72
2023/08/05 23:32:01;;;;;;;5.95;5.35;;;;;;;;;;10162734;28;20109;-72
2023/08/05 23:36:58;;;;;;;6.75;5.80;;;;;;;;;;10217085;28;20045;-72
2023/08/05 23:41:54;;;;;;;5.97;5.38;;;;;;;;;;10160128;28;20425;-72
2023/08/05 23:46:51;;;;;;;5.88;5.35;;;;;;;;;;10194984;28;20895;-72
2023/08/05 23:51:47;;;;;;;6.30;5.70;;;;;;;;;;10153525;28;20105;-71
2023/08/05 23:56:43;;;;;;;6.22;5.72;;;;;;;;;;10158716;28;20054;-72
